createdAt,value
2018-07-21T00:02:39.700Z,12.82
2018-07-21T00:06:43.138Z,13.68
2018-07-21T00:10:46.698Z,13.25
2018-07-21T00:14:50.183Z,13.25
2018-07-21T00:18:53.638Z,13.62
2018-07-21T00:22:57.125Z,13.53
2018-07-21T00:27:00.694Z,13.25
2018-07-21T00:31:04.229Z,13.22
2018-07-21T00:35:07.701Z,13.83
2018-07-21T00:39:15.604Z,13.40
2018-07-21T00:43:19.104Z,13.32
2018-07-21T00:47:22.549Z,12.85
2018-07-21T00:51:26.101Z,14.10
2018-07-21T00:55:29.561Z,13.20
2018-07-21T00:59:33.051Z,13.80
2018-07-21T01:03:36.534Z,14.80
2018-07-21T01:07:40.011Z,14.35
2018-07-21T01:11:43.476Z,14.25
2018-07-21T01:15:46.950Z,14.33
2018-07-21T01:19:50.452Z,14.70
2018-07-21T01:23:53.953Z,14.53
2018-07-21T01:27:57.465Z,15.08
2018-07-21T01:32:00.927Z,15.08
2018-07-21T01:36:04.393Z,14.95
2018-07-21T01:40:07.821Z,13.95
2018-07-21T01:44:11.294Z,14.38
2018-07-21T01:48:14.799Z,15.17
2018-07-21T01:52:18.295Z,14.35
2018-07-21T01:56:21.798Z,13.13
2018-07-21T02:00:25.312Z,13.87
2018-07-21T02:04:28.849Z,14.77
2018-07-21T02:08:32.932Z,14.80
2018-07-21T02:12:36.650Z,14.60
2018-07-21T02:16:40.205Z,14.60
2018-07-21T02:20:43.928Z,14.25
2018-07-21T02:24:47.563Z,14.47
2018-07-21T02:28:51.595Z,13.90
2018-07-21T02:32:55.165Z,15.13
2018-07-21T02:36:58.669Z,16.00
2018-07-21T02:41:02.537Z,15.17
2018-07-21T02:45:06.181Z,14.67
2018-07-21T02:49:10.661Z,14.37
2018-07-21T02:53:15.239Z,14.37
2018-07-21T02:57:18.822Z,15.30
2018-07-21T03:01:22.464Z,14.50
2018-07-21T03:05:26.113Z,15.57
2018-07-21T03:09:29.860Z,15.57
2018-07-21T03:13:36.020Z,14.70
2018-07-21T03:17:39.730Z,15.57
2018-07-21T03:21:43.416Z,15.03
2018-07-21T03:25:46.982Z,15.40
2018-07-21T03:29:50.732Z,15.30
2018-07-21T03:33:54.573Z,16.00
2018-07-21T03:37:58.345Z,15.00
2018-07-21T03:42:01.950Z,15.70
2018-07-21T03:46:06.233Z,15.20
2018-07-21T03:50:09.973Z,16.13
2018-07-21T03:54:13.882Z,15.23
2018-07-21T03:58:17.534Z,16.80
2018-07-21T04:02:21.216Z,16.37
2018-07-21T04:06:25.889Z,16.17
2018-07-21T04:10:29.709Z,16.33
2018-07-21T04:14:33.426Z,16.43
2018-07-21T04:18:37.206Z,16.97
2018-07-21T04:22:41.012Z,16.10
2018-07-21T04:26:45.033Z,17.00
2018-07-21T04:30:49.278Z,16.40
2018-07-21T04:34:52.994Z,15.97
2018-07-21T04:38:56.933Z,15.97
2018-07-21T04:43:00.707Z,16.07
2018-07-21T04:47:04.540Z,17.37
2018-07-21T04:51:08.815Z,16.83
2018-07-21T04:55:12.554Z,17.07
2018-07-21T04:59:16.218Z,17.70
2018-07-21T05:03:19.858Z,17.17
2018-07-21T05:07:23.577Z,16.85
2018-07-21T05:11:27.296Z,15.93
2018-07-21T05:15:31.089Z,16.67
2018-07-21T05:19:35.029Z,16.27
2018-07-21T05:23:41.798Z,16.25
2018-07-21T05:27:45.231Z,15.83
2018-07-21T05:31:48.688Z,16.32
2018-07-21T05:35:52.159Z,16.05
2018-07-21T05:39:55.625Z,15.65
2018-07-21T05:43:59.157Z,15.32
2018-07-21T05:48:02.643Z,15.85
2018-07-21T05:52:06.127Z,15.63
2018-07-21T05:56:09.563Z,15.98
2018-07-21T06:00:14.022Z,15.50
2018-07-21T06:04:17.481Z,15.43
2018-07-21T06:08:20.910Z,14.80
2018-07-21T06:12:24.370Z,15.05
2018-07-21T06:16:27.844Z,15.25
2018-07-21T06:20:31.295Z,13.72
2018-07-21T06:24:34.773Z,13.00
2018-07-21T06:28:38.215Z,14.87
2018-07-21T06:32:41.851Z,14.53
2018-07-21T06:36:45.331Z,14.38
2018-07-21T06:40:48.795Z,14.25
2018-07-21T06:44:52.248Z,13.35
2018-07-21T06:48:55.803Z,12.68
2018-07-21T06:52:59.247Z,13.48
2018-07-21T06:57:02.687Z,13.32
2018-07-21T07:01:06.463Z,12.65
2018-07-21T07:05:10.252Z,12.35
2018-07-21T07:09:13.718Z,13.18
2018-07-21T07:13:17.215Z,12.63
2018-07-21T07:17:20.657Z,12.70
2018-07-21T07:21:24.105Z,13.38
2018-07-21T07:25:27.574Z,13.88
2018-07-21T07:29:31.029Z,12.95
2018-07-21T07:33:34.522Z,12.98
2018-07-21T07:37:38.018Z,12.45
2018-07-21T07:41:41.497Z,11.97
2018-07-21T07:45:44.992Z,11.75
2018-07-21T07:49:48.485Z,11.70
2018-07-21T07:53:51.958Z,12.23
2018-07-21T07:57:55.440Z,11.45
2018-07-21T08:01:58.902Z,11.30
2018-07-21T08:06:02.431Z,12.18
2018-07-21T08:10:06.059Z,11.00
2018-07-21T08:14:09.550Z,11.65
2018-07-21T08:18:12.983Z,11.75
2018-07-21T08:22:16.455Z,11.53
2018-07-21T08:26:19.941Z,11.80
2018-07-21T08:30:23.392Z,11.93
2018-07-21T08:34:26.899Z,11.40
2018-07-21T08:38:30.438Z,12.73
2018-07-21T08:42:33.895Z,12.07
2018-07-21T08:46:37.367Z,11.45
2018-07-21T08:50:40.790Z,10.90
2018-07-21T08:54:44.319Z,10.60
2018-07-21T08:58:47.772Z,9.60
2018-07-21T09:02:51.313Z,9.58
2018-07-21T09:06:54.814Z,9.50
2018-07-21T09:10:58.268Z,8.30
2018-07-21T09:15:01.747Z,8.85
2018-07-21T09:19:05.492Z,8.53
2018-07-21T09:23:08.938Z,9.35
2018-07-21T09:27:12.381Z,8.78
2018-07-21T09:31:15.926Z,8.70
2018-07-21T09:35:19.387Z,9.25
2018-07-21T09:39:22.874Z,10.10
2018-07-21T09:43:26.283Z,9.13
2018-07-21T09:47:29.753Z,9.38
2018-07-21T09:51:33.227Z,9.43
2018-07-21T09:55:36.738Z,9.45
2018-07-21T09:59:40.233Z,9.63
2018-07-21T10:03:43.724Z,10.32
2018-07-21T10:07:47.261Z,9.90
2018-07-21T10:11:50.791Z,10.18
2018-07-21T10:15:54.263Z,9.33
2018-07-21T10:19:57.757Z,9.73
2018-07-21T10:25:05.139Z,9.30
2018-07-21T10:29:12.246Z,8.88
2018-07-21T10:33:15.859Z,9.78
2018-07-21T10:37:19.284Z,9.25
2018-07-21T10:41:22.754Z,9.23
2018-07-21T10:45:26.516Z,9.20
2018-07-21T10:49:29.974Z,9.08
2018-07-21T10:53:34.479Z,8.90
2018-07-21T10:57:37.890Z,8.85
2018-07-21T11:01:41.334Z,8.78
2018-07-21T11:05:44.861Z,8.90
2018-07-21T11:09:48.334Z,8.95
2018-07-21T11:13:51.927Z,8.68
2018-07-21T11:17:55.456Z,8.90
2018-07-21T11:21:58.948Z,8.00
2018-07-21T11:26:02.436Z,7.87
2018-07-21T11:30:06.536Z,8.20
2018-07-21T11:34:10.008Z,7.87
2018-07-21T11:38:13.443Z,8.15
2018-07-21T11:42:16.927Z,8.08
2018-07-21T11:46:20.388Z,7.75
2018-07-21T11:50:23.949Z,7.12
2018-07-21T11:54:27.409Z,7.75
2018-07-21T11:58:30.914Z,7.40
2018-07-21T12:02:34.447Z,7.55
2018-07-21T12:06:38.066Z,7.67
2018-07-21T12:10:41.623Z,6.92
2018-07-21T12:14:45.355Z,7.78
2018-07-21T12:18:48.986Z,8.50
2018-07-21T12:22:52.530Z,6.75
2018-07-21T12:26:56.110Z,6.90
2018-07-21T12:30:59.717Z,6.22
2018-07-21T12:35:03.306Z,5.80
2018-07-21T12:39:08.667Z,5.78
2018-07-21T12:43:12.362Z,5.67
2018-07-21T12:47:15.976Z,6.25
2018-07-21T12:51:19.609Z,5.40
2018-07-21T12:55:23.099Z,5.95
2018-07-21T12:59:26.631Z,5.47
2018-07-21T13:03:30.183Z,5.75
2018-07-21T13:07:33.698Z,5.83
2018-07-21T13:11:37.230Z,6.10
2018-07-21T13:15:40.695Z,5.92
2018-07-21T13:19:44.168Z,5.85
2018-07-21T13:23:47.712Z,5.70
2018-07-21T13:27:51.238Z,5.70
2018-07-21T13:31:54.779Z,5.33
2018-07-21T13:35:58.272Z,5.78
2018-07-21T13:40:01.753Z,5.92
2018-07-21T13:44:05.286Z,5.45
2018-07-21T13:48:08.729Z,5.47
2018-07-21T13:52:12.188Z,5.35
2018-07-21T13:56:15.669Z,5.35
2018-07-21T14:00:19.111Z,5.70
2018-07-21T14:04:22.633Z,5.53
2018-07-21T14:08:26.109Z,5.60
2018-07-21T14:12:29.658Z,5.60
2018-07-21T14:16:33.154Z,5.50
2018-07-21T14:20:36.734Z,5.45
2018-07-21T14:24:40.306Z,5.20
2018-07-21T14:28:43.775Z,5.42
2018-07-21T14:32:47.351Z,5.40
2018-07-21T14:36:50.894Z,5.22
2018-07-21T14:40:54.482Z,5.08
2018-07-21T14:44:57.995Z,5.35
2018-07-21T14:49:01.543Z,5.67
2018-07-21T14:53:05.093Z,5.90
2018-07-21T14:57:08.851Z,5.33
2018-07-21T15:01:12.540Z,5.78
2018-07-21T15:05:16.154Z,5.90
2018-07-21T15:09:19.875Z,5.95
2018-07-21T15:13:23.450Z,7.50
2018-07-21T15:17:26.871Z,7.53
2018-07-21T15:21:30.328Z,7.83
2018-07-21T15:25:33.803Z,7.95
2018-07-21T15:29:37.298Z,7.30
2018-07-21T15:33:40.749Z,6.90
2018-07-21T15:37:44.194Z,6.03
2018-07-21T15:41:47.763Z,5.92
2018-07-21T15:45:51.200Z,8.25
2018-07-21T15:49:54.737Z,8.68
2018-07-21T15:53:58.282Z,7.92
2018-07-21T15:58:02.036Z,9.58
2018-07-21T16:02:05.528Z,9.90
2018-07-21T16:06:08.998Z,9.75
2018-07-21T16:10:12.442Z,8.95
2018-07-21T16:14:15.861Z,7.78
2018-07-21T16:18:19.334Z,6.90
2018-07-21T16:22:22.754Z,6.95
2018-07-21T16:26:26.197Z,7.28
2018-07-21T16:30:29.657Z,6.78
2018-07-21T16:34:33.172Z,7.28
2018-07-21T16:38:36.593Z,7.78
2018-07-21T16:42:40.089Z,7.55
2018-07-21T16:46:43.520Z,7.25
2018-07-21T16:50:46.961Z,6.80
2018-07-21T16:54:50.410Z,7.15
2018-07-21T16:58:53.846Z,6.92
2018-07-21T17:02:57.307Z,6.72
2018-07-21T17:07:01.398Z,6.05
2018-07-21T17:11:04.902Z,6.67
2018-07-21T17:15:08.567Z,7.05
2018-07-21T17:19:12.052Z,7.40
2018-07-21T17:23:16.496Z,8.88
2018-07-21T17:27:22.536Z,9.85
2018-07-21T17:31:26.414Z,10.05
2018-07-21T17:35:30.263Z,9.08
2018-07-21T17:39:33.713Z,8.88
2018-07-21T17:43:37.226Z,9.70
2018-07-21T17:47:40.662Z,9.75
2018-07-21T17:51:44.135Z,10.70
2018-07-21T17:55:47.638Z,10.38
2018-07-21T17:59:51.087Z,12.15
2018-07-21T18:03:54.578Z,11.20
2018-07-21T18:07:58.022Z,12.98
2018-07-21T18:12:01.479Z,13.18
2018-07-21T18:16:04.997Z,13.00
2018-07-21T18:20:08.530Z,12.85
2018-07-21T18:24:11.917Z,13.22
2018-07-21T18:28:15.452Z,14.18
2018-07-21T18:32:18.924Z,14.70
2018-07-21T18:36:22.372Z,15.93
2018-07-21T18:40:25.809Z,16.87
2018-07-21T18:44:29.247Z,16.60
2018-07-21T18:48:32.709Z,17.00
2018-07-21T18:52:36.173Z,17.62
2018-07-21T18:56:39.629Z,17.90
2018-07-21T19:00:43.096Z,17.67
2018-07-21T19:04:46.547Z,17.98
2018-07-21T19:08:55.304Z,19.07
2018-07-21T19:12:58.781Z,17.05
2018-07-21T19:17:02.238Z,17.57
2018-07-21T19:21:10.906Z,16.93
2018-07-21T19:25:19.810Z,17.45
2018-07-21T19:29:23.270Z,17.15
2018-07-21T19:33:26.709Z,17.20
2018-07-21T19:37:35.658Z,18.02
2018-07-21T19:41:44.196Z,17.98
2018-07-21T19:45:47.741Z,17.95
2018-07-21T19:49:51.112Z,20.75
2018-07-21T19:53:54.578Z,19.67
2018-07-21T19:57:58.091Z,18.15
2018-07-21T20:02:01.591Z,19.35
2018-07-21T20:06:05.008Z,18.10
2018-07-21T20:10:08.439Z,20.97
2018-07-21T20:14:11.914Z,18.75
2018-07-21T20:18:15.387Z,20.45
2018-07-21T20:22:18.827Z,19.32
2018-07-21T20:26:22.294Z,19.50
2018-07-21T20:30:25.791Z,19.20
2018-07-21T20:34:29.191Z,19.95
2018-07-21T20:38:32.661Z,20.72
2018-07-21T20:42:36.108Z,21.33
2018-07-21T20:46:39.555Z,21.57
2018-07-21T20:50:43.076Z,21.12
2018-07-21T20:54:46.526Z,20.80
2018-07-21T20:58:49.992Z,21.02
2018-07-21T21:02:53.482Z,22.17
2018-07-21T21:06:56.956Z,21.68
2018-07-21T21:11:00.406Z,20.92
2018-07-21T21:15:03.914Z,21.55
2018-07-21T21:19:07.387Z,23.10
2018-07-21T21:23:11.845Z,23.95
2018-07-21T21:27:15.310Z,23.32
2018-07-21T21:31:18.789Z,25.43
2018-07-21T21:35:22.252Z,24.72
2018-07-21T21:39:25.719Z,24.75
2018-07-21T21:43:29.181Z,26.45
2018-07-21T21:47:32.658Z,25.02
2018-07-21T21:51:36.128Z,25.55
2018-07-21T21:55:39.577Z,28.38
2018-07-21T21:59:43.049Z,26.10
2018-07-21T22:03:46.561Z,25.90
2018-07-21T22:07:50.056Z,26.80
2018-07-21T22:11:53.508Z,25.75
2018-07-21T22:15:57.196Z,28.32
2018-07-21T22:20:00.692Z,26.90
2018-07-21T22:24:04.139Z,25.97
2018-07-21T22:28:08.142Z,26.33
2018-07-21T22:32:11.870Z,27.58
2018-07-21T22:36:15.342Z,28.47
2018-07-21T22:40:18.867Z,29.83
2018-07-21T22:44:22.343Z,30.77
2018-07-21T22:48:25.852Z,31.47
2018-07-21T22:52:29.295Z,32.03
2018-07-21T22:56:32.755Z,33.90
2018-07-21T23:00:36.218Z,37.42
2018-07-21T23:04:39.674Z,36.80
2018-07-21T23:08:43.152Z,37.63
2018-07-21T23:12:46.660Z,38.13
2018-07-21T23:16:50.125Z,37.10
2018-07-21T23:20:53.572Z,35.52
2018-07-21T23:24:57.018Z,35.95
2018-07-21T23:29:00.466Z,33.53
2018-07-21T23:33:03.979Z,31.60
2018-07-21T23:37:07.461Z,33.18
2018-07-21T23:41:10.955Z,29.97
2018-07-21T23:45:14.427Z,31.03
2018-07-21T23:49:17.840Z,32.30
2018-07-21T23:53:21.287Z,32.65
2018-07-21T23:57:24.746Z,34.73
